sensor_id;sensor_type;location;lat;lon;timestamp;temperature;humidity
31677;DHT22;18385;51.572;6.578;2023-02-28T00:01:12;2.80;55.00
31677;DHT22;18385;51.572;6.578;2023-02-28T00:03:38;2.80;55.00
31677;DHT22;18385;51.572;6.578;2023-02-28T00:06:05;2.70;55.00
31677;DHT22;18385;51.572;6.578;2023-02-28T00:08:31;2.80;55.10
31677;DHT22;18385;51.572;6.578;2023-02-28T00:11:01;2.70;55.10
31677;DHT22;18385;51.572;6.578;2023-02-28T00:13:27;2.70;55.10
31677;DHT22;18385;51.572;6.578;2023-02-28T00:16:05;2.80;55.20
31677;DHT22;18385;51.572;6.578;2023-02-28T00:18:31;2.80;55.30
31677;DHT22;18385;51.572;6.578;2023-02-28T00:20:57;2.70;55.20
31677;DHT22;18385;51.572;6.578;2023-02-28T00:23:23;2.70;55.20
31677;DHT22;18385;51.572;6.578;2023-02-28T00:25:49;2.70;55.10
31677;DHT22;18385;51.572;6.578;2023-02-28T00:28:15;2.60;55.20
31677;DHT22;18385;51.572;6.578;2023-02-28T00:30:41;2.60;55.30
31677;DHT22;18385;51.572;6.578;2023-02-28T00:33:07;2.60;55.30
31677;DHT22;18385;51.572;6.578;2023-02-28T00:35:32;2.60;55.40
31677;DHT22;18385;51.572;6.578;2023-02-28T00:37:58;2.60;55.40
31677;DHT22;18385;51.572;6.578;2023-02-28T00:40:26;2.60;55.40
31677;DHT22;18385;51.572;6.578;2023-02-28T00:42:52;2.50;55.30
31677;DHT22;18385;51.572;6.578;2023-02-28T00:45:17;2.50;55.40
31677;DHT22;18385;51.572;6.578;2023-02-28T00:47:44;2.40;55.40
31677;DHT22;18385;51.572;6.578;2023-02-28T00:50:12;2.40;55.50
31677;DHT22;18385;51.572;6.578;2023-02-28T00:52:38;2.40;55.60
31677;DHT22;18385;51.572;6.578;2023-02-28T00:55:04;2.40;55.70
31677;DHT22;18385;51.572;6.578;2023-02-28T00:57:30;2.40;55.70
31677;DHT22;18385;51.572;6.578;2023-02-28T00:59:55;2.40;55.70
31677;DHT22;18385;51.572;6.578;2023-02-28T01:02:22;2.30;55.70
31677;DHT22;18385;51.572;6.578;2023-02-28T01:04:48;2.40;56.00
31677;DHT22;18385;51.572;6.578;2023-02-28T01:07:14;2.40;56.00
31677;DHT22;18385;51.572;6.578;2023-02-28T01:09:40;2.50;56.00
31677;DHT22;18385;51.572;6.578;2023-02-28T01:12:08;2.60;55.90
31677;DHT22;18385;51.572;6.578;2023-02-28T01:14:34;2.60;55.90
31677;DHT22;18385;51.572;6.578;2023-02-28T01:17:00;2.70;55.90
31677;DHT22;18385;51.572;6.578;2023-02-28T01:19:26;2.90;56.00
31677;DHT22;18385;51.572;6.578;2023-02-28T01:21:52;3.00;55.90
31677;DHT22;18385;51.572;6.578;2023-02-28T01:24:17;3.00;55.70
31677;DHT22;18385;51.572;6.578;2023-02-28T01:26:44;3.00;55.60
31677;DHT22;18385;51.572;6.578;2023-02-28T01:29:10;3.00;55.50
31677;DHT22;18385;51.572;6.578;2023-02-28T01:31:35;2.90;55.50
31677;DHT22;18385;51.572;6.578;2023-02-28T01:34:01;2.80;55.50
31677;DHT22;18385;51.572;6.578;2023-02-28T01:36:29;2.70;56.20
31677;DHT22;18385;51.572;6.578;2023-02-28T01:38:56;2.60;55.70
31677;DHT22;18385;51.572;6.578;2023-02-28T01:41:24;2.50;55.80
31677;DHT22;18385;51.572;6.578;2023-02-28T01:46:59;2.50;56.00
31677;DHT22;18385;51.572;6.578;2023-02-28T01:49:25;2.40;55.90
31677;DHT22;18385;51.572;6.578;2023-02-28T01:51:55;2.30;56.00
31677;DHT22;18385;51.572;6.578;2023-02-28T01:54:31;2.20;56.80
31677;DHT22;18385;51.572;6.578;2023-02-28T01:59:37;2.10;56.20
31677;DHT22;18385;51.572;6.578;2023-02-28T02:02:06;2.10;56.30
31677;DHT22;18385;51.572;6.578;2023-02-28T02:04:37;2.10;56.30
31677;DHT22;18385;51.572;6.578;2023-02-28T02:07:04;2.10;56.40
31677;DHT22;18385;51.572;6.578;2023-02-28T02:09:30;2.10;56.40
31677;DHT22;18385;51.572;6.578;2023-02-28T02:11:56;2.10;56.40
31677;DHT22;18385;51.572;6.578;2023-02-28T02:14:49;2.20;56.40
31677;DHT22;18385;51.572;6.578;2023-02-28T02:17:34;2.20;56.50
31677;DHT22;18385;51.572;6.578;2023-02-28T02:23:08;2.00;56.40
31677;DHT22;18385;51.572;6.578;2023-02-28T02:26:01;1.90;56.40
31677;DHT22;18385;51.572;6.578;2023-02-28T02:36:39;1.60;56.70
31677;DHT22;18385;51.572;6.578;2023-02-28T02:39:17;1.50;56.70
31677;DHT22;18385;51.572;6.578;2023-02-28T02:41:53;1.40;56.80
31677;DHT22;18385;51.572;6.578;2023-02-28T02:46:45;1.30;56.90
31677;DHT22;18385;51.572;6.578;2023-02-28T02:49:24;1.30;57.00
31677;DHT22;18385;51.572;6.578;2023-02-28T02:51:52;1.30;57.10
31677;DHT22;18385;51.572;6.578;2023-02-28T02:54:34;1.20;57.00
31677;DHT22;18385;51.572;6.578;2023-02-28T02:57:04;1.20;57.10
31677;DHT22;18385;51.572;6.578;2023-02-28T02:59:31;1.10;57.10
31677;DHT22;18385;51.572;6.578;2023-02-28T03:02:02;1.10;57.20
31677;DHT22;18385;51.572;6.578;2023-02-28T03:04:33;1.10;57.30
31677;DHT22;18385;51.572;6.578;2023-02-28T03:07:00;1.20;57.40
31677;DHT22;18385;51.572;6.578;2023-02-28T03:09:26;1.20;57.40
31677;DHT22;18385;51.572;6.578;2023-02-28T03:11:54;1.30;57.30
31677;DHT22;18385;51.572;6.578;2023-02-28T03:17:16;1.20;57.20
31677;DHT22;18385;51.572;6.578;2023-02-28T03:27:47;1.20;57.60
31677;DHT22;18385;51.572;6.578;2023-02-28T03:30:41;1.20;57.60
31677;DHT22;18385;51.572;6.578;2023-02-28T03:33:27;1.20;57.60
31677;DHT22;18385;51.572;6.578;2023-02-28T03:36:01;1.10;57.60
31677;DHT22;18385;51.572;6.578;2023-02-28T03:38:35;1.00;57.50
31677;DHT22;18385;51.572;6.578;2023-02-28T03:41:14;1.00;57.60
31677;DHT22;18385;51.572;6.578;2023-02-28T03:43:44;0.90;57.70
31677;DHT22;18385;51.572;6.578;2023-02-28T03:46:13;0.90;58.40
31677;DHT22;18385;51.572;6.578;2023-02-28T03:48:48;0.90;57.80
31677;DHT22;18385;51.572;6.578;2023-02-28T03:51:17;0.90;57.90
31677;DHT22;18385;51.572;6.578;2023-02-28T03:53:45;0.90;57.90
31677;DHT22;18385;51.572;6.578;2023-02-28T03:56:28;0.80;57.80
31677;DHT22;18385;51.572;6.578;2023-02-28T03:59:07;0.80;57.90
31677;DHT22;18385;51.572;6.578;2023-02-28T04:01:43;0.80;57.90
31677;DHT22;18385;51.572;6.578;2023-02-28T04:04:10;0.80;57.90
31677;DHT22;18385;51.572;6.578;2023-02-28T04:06:36;0.90;58.00
31677;DHT22;18385;51.572;6.578;2023-02-28T04:09:03;0.80;58.00
31677;DHT22;18385;51.572;6.578;2023-02-28T04:11:34;0.80;58.00
31677;DHT22;18385;51.572;6.578;2023-02-28T04:14:01;0.80;58.00
31677;DHT22;18385;51.572;6.578;2023-02-28T04:16:28;0.80;58.10
31677;DHT22;18385;51.572;6.578;2023-02-28T04:18:54;0.80;58.10
31677;DHT22;18385;51.572;6.578;2023-02-28T04:21:28;0.80;58.10
31677;DHT22;18385;51.572;6.578;2023-02-28T04:23:54;0.80;58.10
31677;DHT22;18385;51.572;6.578;2023-02-28T04:26:20;0.80;58.10
31677;DHT22;18385;51.572;6.578;2023-02-28T04:28:45;0.80;58.10
31677;DHT22;18385;51.572;6.578;2023-02-28T04:31:11;0.70;58.10
31677;DHT22;18385;51.572;6.578;2023-02-28T04:33:37;0.70;58.20
31677;DHT22;18385;51.572;6.578;2023-02-28T04:36:07;0.70;58.30
31677;DHT22;18385;51.572;6.578;2023-02-28T04:38:35;0.80;58.30
31677;DHT22;18385;51.572;6.578;2023-02-28T04:41:01;0.70;58.20
31677;DHT22;18385;51.572;6.578;2023-02-28T04:43:27;0.70;58.10
31677;DHT22;18385;51.572;6.578;2023-02-28T04:45:54;0.70;58.20
31677;DHT22;18385;51.572;6.578;2023-02-28T04:48:27;0.70;58.20
31677;DHT22;18385;51.572;6.578;2023-02-28T04:50:53;0.60;58.30
31677;DHT22;18385;51.572;6.578;2023-02-28T04:53:19;0.70;58.40
31677;DHT22;18385;51.572;6.578;2023-02-28T04:55:45;0.60;58.30
31677;DHT22;18385;51.572;6.578;2023-02-28T04:58:11;0.60;58.30
31677;DHT22;18385;51.572;6.578;2023-02-28T05:00:37;0.60;58.30
31677;DHT22;18385;51.572;6.578;2023-02-28T05:03:03;0.60;58.40
31677;DHT22;18385;51.572;6.578;2023-02-28T05:05:29;0.60;58.40
31677;DHT22;18385;51.572;6.578;2023-02-28T05:07:55;0.50;58.40
31677;DHT22;18385;51.572;6.578;2023-02-28T05:10:24;0.60;58.50
31677;DHT22;18385;51.572;6.578;2023-02-28T05:12:49;0.60;58.50
31677;DHT22;18385;51.572;6.578;2023-02-28T05:15:16;0.60;58.50
31677;DHT22;18385;51.572;6.578;2023-02-28T05:17:42;0.60;58.50
31677;DHT22;18385;51.572;6.578;2023-02-28T05:20:09;0.50;58.50
31677;DHT22;18385;51.572;6.578;2023-02-28T05:22:39;0.50;58.60
31677;DHT22;18385;51.572;6.578;2023-02-28T05:25:05;0.50;58.60
31677;DHT22;18385;51.572;6.578;2023-02-28T05:27:32;0.60;58.70
31677;DHT22;18385;51.572;6.578;2023-02-28T05:29:58;0.60;58.70
31677;DHT22;18385;51.572;6.578;2023-02-28T05:32:24;0.60;58.70
31677;DHT22;18385;51.572;6.578;2023-02-28T05:34:50;0.60;58.60
31677;DHT22;18385;51.572;6.578;2023-02-28T05:37:16;0.60;58.50
31677;DHT22;18385;51.572;6.578;2023-02-28T05:39:42;0.60;58.50
31677;DHT22;18385;51.572;6.578;2023-02-28T05:42:08;0.60;58.50
31677;DHT22;18385;51.572;6.578;2023-02-28T05:44:35;0.50;58.50
31677;DHT22;18385;51.572;6.578;2023-02-28T05:47:01;0.50;58.60
31677;DHT22;18385;51.572;6.578;2023-02-28T05:49:26;0.60;58.60
31677;DHT22;18385;51.572;6.578;2023-02-28T05:51:52;0.50;58.50
31677;DHT22;18385;51.572;6.578;2023-02-28T05:54:18;0.50;58.50
31677;DHT22;18385;51.572;6.578;2023-02-28T05:56:43;0.50;58.60
31677;DHT22;18385;51.572;6.578;2023-02-28T05:59:11;0.40;58.50
31677;DHT22;18385;51.572;6.578;2023-02-28T06:01:42;0.30;58.60
31677;DHT22;18385;51.572;6.578;2023-02-28T06:04:14;0.40;58.70
31677;DHT22;18385;51.572;6.578;2023-02-28T06:06:49;0.40;58.70
31677;DHT22;18385;51.572;6.578;2023-02-28T06:09:16;0.30;58.80
31677;DHT22;18385;51.572;6.578;2023-02-28T06:11:42;0.30;58.90
31677;DHT22;18385;51.572;6.578;2023-02-28T06:14:17;0.30;58.90
31677;DHT22;18385;51.572;6.578;2023-02-28T06:16:42;0.30;58.90
31677;DHT22;18385;51.572;6.578;2023-02-28T06:19:09;0.40;58.90
31677;DHT22;18385;51.572;6.578;2023-02-28T06:21:35;0.40;58.90
31677;DHT22;18385;51.572;6.578;2023-02-28T06:24:02;0.40;58.90
31677;DHT22;18385;51.572;6.578;2023-02-28T06:26:27;0.40;58.90
31677;DHT22;18385;51.572;6.578;2023-02-28T06:28:53;0.40;58.80
31677;DHT22;18385;51.572;6.578;2023-02-28T06:31:20;0.40;58.80
31677;DHT22;18385;51.572;6.578;2023-02-28T06:33:48;0.40;58.70
31677;DHT22;18385;51.572;6.578;2023-02-28T06:36:15;0.40;58.80
31677;DHT22;18385;51.572;6.578;2023-02-28T06:38:41;0.40;58.80
31677;DHT22;18385;51.572;6.578;2023-02-28T06:41:07;0.40;58.90
31677;DHT22;18385;51.572;6.578;2023-02-28T06:43:39;0.40;58.80
31677;DHT22;18385;51.572;6.578;2023-02-28T06:46:07;0.40;59.00
31677;DHT22;18385;51.572;6.578;2023-02-28T06:48:34;0.40;58.90
31677;DHT22;18385;51.572;6.578;2023-02-28T06:51:12;0.50;59.00
31677;DHT22;18385;51.572;6.578;2023-02-28T06:53:40;0.50;59.00
31677;DHT22;18385;51.572;6.578;2023-02-28T06:56:12;0.60;59.00
31677;DHT22;18385;51.572;6.578;2023-02-28T06:58:38;0.70;58.90
31677;DHT22;18385;51.572;6.578;2023-02-28T07:01:05;0.70;58.90
31677;DHT22;18385;51.572;6.578;2023-02-28T07:03:31;0.80;58.90
31677;DHT22;18385;51.572;6.578;2023-02-28T07:05:57;0.80;58.80
31677;DHT22;18385;51.572;6.578;2023-02-28T07:08:24;0.80;58.70
31677;DHT22;18385;51.572;6.578;2023-02-28T07:10:54;0.90;58.80
31677;DHT22;18385;51.572;6.578;2023-02-28T07:13:20;0.90;58.90
31677;DHT22;18385;51.572;6.578;2023-02-28T07:15:57;1.00;58.80
31677;DHT22;18385;51.572;6.578;2023-02-28T07:18:23;1.10;58.90
31677;DHT22;18385;51.572;6.578;2023-02-28T07:20:49;1.10;58.80
31677;DHT22;18385;51.572;6.578;2023-02-28T07:23:15;1.20;58.80
31677;DHT22;18385;51.572;6.578;2023-02-28T07:25:41;1.30;58.80
31677;DHT22;18385;51.572;6.578;2023-02-28T07:28:06;1.40;58.80
31677;DHT22;18385;51.572;6.578;2023-02-28T07:30:32;1.40;58.70
31677;DHT22;18385;51.572;6.578;2023-02-28T07:32:58;1.50;58.70
31677;DHT22;18385;51.572;6.578;2023-02-28T07:35:23;1.60;58.70
31677;DHT22;18385;51.572;6.578;2023-02-28T07:37:49;1.70;58.70
31677;DHT22;18385;51.572;6.578;2023-02-28T07:40:15;1.70;58.60
31677;DHT22;18385;51.572;6.578;2023-02-28T07:42:43;1.80;58.60
31677;DHT22;18385;51.572;6.578;2023-02-28T07:45:10;1.90;58.60
31677;DHT22;18385;51.572;6.578;2023-02-28T07:47:41;1.90;58.50
31677;DHT22;18385;51.572;6.578;2023-02-28T07:50:09;2.00;58.60
31677;DHT22;18385;51.572;6.578;2023-02-28T07:52:36;2.10;58.60
31677;DHT22;18385;51.572;6.578;2023-02-28T07:55:02;2.20;58.60
31677;DHT22;18385;51.572;6.578;2023-02-28T07:57:28;2.30;58.50
31677;DHT22;18385;51.572;6.578;2023-02-28T07:59:53;2.40;58.50
31677;DHT22;18385;51.572;6.578;2023-02-28T08:02:19;2.50;58.40
31677;DHT22;18385;51.572;6.578;2023-02-28T08:04:45;2.50;58.30
31677;DHT22;18385;51.572;6.578;2023-02-28T08:07:13;2.60;58.30
31677;DHT22;18385;51.572;6.578;2023-02-28T08:09:39;2.70;58.30
31677;DHT22;18385;51.572;6.578;2023-02-28T08:12:06;2.80;58.90
31677;DHT22;18385;51.572;6.578;2023-02-28T08:14:32;2.90;58.30
31677;DHT22;18385;51.572;6.578;2023-02-28T08:16:58;2.90;58.30
31677;DHT22;18385;51.572;6.578;2023-02-28T08:19:23;3.00;58.20
31677;DHT22;18385;51.572;6.578;2023-02-28T08:21:49;3.10;58.20
31677;DHT22;18385;51.572;6.578;2023-02-28T08:24:14;3.10;58.20
31677;DHT22;18385;51.572;6.578;2023-02-28T08:26:40;3.20;58.10
31677;DHT22;18385;51.572;6.578;2023-02-28T08:29:06;3.30;58.10
31677;DHT22;18385;51.572;6.578;2023-02-28T08:31:31;3.30;58.00
31677;DHT22;18385;51.572;6.578;2023-02-28T08:33:57;3.40;58.00
31677;DHT22;18385;51.572;6.578;2023-02-28T08:36:25;3.50;57.90
31677;DHT22;18385;51.572;6.578;2023-02-28T08:38:52;3.60;57.90
31677;DHT22;18385;51.572;6.578;2023-02-28T08:41:17;3.70;57.90
31677;DHT22;18385;51.572;6.578;2023-02-28T08:43:43;3.70;57.80
31677;DHT22;18385;51.572;6.578;2023-02-28T08:46:12;3.80;57.80
31677;DHT22;18385;51.572;6.578;2023-02-28T08:48:39;3.90;57.80
31677;DHT22;18385;51.572;6.578;2023-02-28T08:51:08;4.00;57.70
31677;DHT22;18385;51.572;6.578;2023-02-28T08:53:35;4.10;57.60
31677;DHT22;18385;51.572;6.578;2023-02-28T08:56:04;4.20;57.60
31677;DHT22;18385;51.572;6.578;2023-02-28T08:58:30;4.20;57.50
31677;DHT22;18385;51.572;6.578;2023-02-28T09:00:56;4.30;57.50
31677;DHT22;18385;51.572;6.578;2023-02-28T09:03:23;4.40;57.40
31677;DHT22;18385;51.572;6.578;2023-02-28T09:06:08;4.40;57.40
31677;DHT22;18385;51.572;6.578;2023-02-28T09:08:34;4.50;57.30
31677;DHT22;18385;51.572;6.578;2023-02-28T09:11:00;4.60;57.30
31677;DHT22;18385;51.572;6.578;2023-02-28T09:13:27;4.70;57.30
31677;DHT22;18385;51.572;6.578;2023-02-28T09:15:53;4.80;57.30
31677;DHT22;18385;51.572;6.578;2023-02-28T09:18:20;4.90;57.80
31677;DHT22;18385;51.572;6.578;2023-02-28T09:20:46;5.00;57.10
31677;DHT22;18385;51.572;6.578;2023-02-28T09:23:12;5.10;57.00
31677;DHT22;18385;51.572;6.578;2023-02-28T09:25:53;5.10;56.90
31677;DHT22;18385;51.572;6.578;2023-02-28T09:28:20;5.20;56.70
31677;DHT22;18385;51.572;6.578;2023-02-28T09:30:51;5.20;56.70
31677;DHT22;18385;51.572;6.578;2023-02-28T09:33:18;5.30;56.60
31677;DHT22;18385;51.572;6.578;2023-02-28T09:35:47;5.40;56.60
31677;DHT22;18385;51.572;6.578;2023-02-28T09:38:13;5.50;56.60
31677;DHT22;18385;51.572;6.578;2023-02-28T09:40:56;5.60;56.50
31677;DHT22;18385;51.572;6.578;2023-02-28T09:43:26;5.60;56.20
31677;DHT22;18385;51.572;6.578;2023-02-28T09:48:39;5.80;56.10
31677;DHT22;18385;51.572;6.578;2023-02-28T09:53:47;5.90;55.90
31677;DHT22;18385;51.572;6.578;2023-02-28T09:56:26;5.90;55.90
31677;DHT22;18385;51.572;6.578;2023-02-28T09:59:10;6.00;55.80
31677;DHT22;18385;51.572;6.578;2023-02-28T10:01:54;6.00;55.80
31677;DHT22;18385;51.572;6.578;2023-02-28T10:04:30;6.10;55.70
31677;DHT22;18385;51.572;6.578;2023-02-28T10:07:00;6.20;55.60
31677;DHT22;18385;51.572;6.578;2023-02-28T10:09:33;6.20;55.40
31677;DHT22;18385;51.572;6.578;2023-02-28T10:12:03;6.30;55.40
31677;DHT22;18385;51.572;6.578;2023-02-28T10:14:32;6.30;55.30
31677;DHT22;18385;51.572;6.578;2023-02-28T10:17:06;6.30;55.20
31677;DHT22;18385;51.572;6.578;2023-02-28T10:20:02;6.40;55.10
31677;DHT22;18385;51.572;6.578;2023-02-28T10:22:49;6.40;54.80
31677;DHT22;18385;51.572;6.578;2023-02-28T10:25:25;6.50;55.00
31677;DHT22;18385;51.572;6.578;2023-02-28T10:28:01;6.50;54.80
31677;DHT22;18385;51.572;6.578;2023-02-28T10:30:31;6.60;54.70
31677;DHT22;18385;51.572;6.578;2023-02-28T10:32:56;6.60;54.50
31677;DHT22;18385;51.572;6.578;2023-02-28T10:35:24;6.70;54.40
31677;DHT22;18385;51.572;6.578;2023-02-28T10:37:54;6.70;54.20
31677;DHT22;18385;51.572;6.578;2023-02-28T10:46:26;7.10;54.10
31677;DHT22;18385;51.572;6.578;2023-02-28T10:49:05;7.20;53.90
31677;DHT22;18385;51.572;6.578;2023-02-28T10:51:37;7.30;53.50
31677;DHT22;18385;51.572;6.578;2023-02-28T10:54:03;7.20;53.20
31677;DHT22;18385;51.572;6.578;2023-02-28T10:56:30;7.20;52.90
31677;DHT22;18385;51.572;6.578;2023-02-28T10:59:03;7.20;53.20
31677;DHT22;18385;51.572;6.578;2023-02-28T11:01:43;7.20;52.80
31677;DHT22;18385;51.572;6.578;2023-02-28T11:06:45;7.20;52.50
31677;DHT22;18385;51.572;6.578;2023-02-28T11:09:25;7.20;52.70
31677;DHT22;18385;51.572;6.578;2023-02-28T11:11:52;7.20;52.60
31677;DHT22;18385;51.572;6.578;2023-02-28T11:14:26;7.10;52.40
31677;DHT22;18385;51.572;6.578;2023-02-28T11:16:53;7.10;52.30
31677;DHT22;18385;51.572;6.578;2023-02-28T11:19:25;7.10;52.30
31677;DHT22;18385;51.572;6.578;2023-02-28T11:22:04;7.10;52.10
31677;DHT22;18385;51.572;6.578;2023-02-28T11:24:36;7.10;52.30
31677;DHT22;18385;51.572;6.578;2023-02-28T11:27:05;7.00;52.00
31677;DHT22;18385;51.572;6.578;2023-02-28T11:29:33;7.00;52.20
31677;DHT22;18385;51.572;6.578;2023-02-28T11:32:20;7.00;52.10
31677;DHT22;18385;51.572;6.578;2023-02-28T11:34:47;7.00;51.90
31677;DHT22;18385;51.572;6.578;2023-02-28T11:37:25;6.90;52.00
31677;DHT22;18385;51.572;6.578;2023-02-28T11:39:52;6.90;51.90
31677;DHT22;18385;51.572;6.578;2023-02-28T11:45:36;6.70;51.50
31677;DHT22;18385;51.572;6.578;2023-02-28T11:48:19;6.60;51.70
31677;DHT22;18385;51.572;6.578;2023-02-28T11:50:53;6.60;51.70
31677;DHT22;18385;51.572;6.578;2023-02-28T11:59:01;6.90;51.70
31677;DHT22;18385;51.572;6.578;2023-02-28T12:06:49;7.50;51.40
31677;DHT22;18385;51.572;6.578;2023-02-28T12:15:05;7.70;50.70
31677;DHT22;18385;51.572;6.578;2023-02-28T12:17:59;7.80;50.80
31677;DHT22;18385;51.572;6.578;2023-02-28T12:20:46;7.90;50.60
31677;DHT22;18385;51.572;6.578;2023-02-28T12:23:39;8.10;50.60
31677;DHT22;18385;51.572;6.578;2023-02-28T12:28:51;8.20;50.20
31677;DHT22;18385;51.572;6.578;2023-02-28T12:31:24;8.20;50.10
31677;DHT22;18385;51.572;6.578;2023-02-28T12:33:59;8.20;50.00
31677;DHT22;18385;51.572;6.578;2023-02-28T12:36:26;8.40;49.90
31677;DHT22;18385;51.572;6.578;2023-02-28T12:38:59;8.40;49.90
31677;DHT22;18385;51.572;6.578;2023-02-28T12:44:26;8.60;49.60
31677;DHT22;18385;51.572;6.578;2023-02-28T12:46:57;8.70;49.30
31677;DHT22;18385;51.572;6.578;2023-02-28T12:49:33;8.70;49.30
31677;DHT22;18385;51.572;6.578;2023-02-28T12:52:01;8.80;49.20
31677;DHT22;18385;51.572;6.578;2023-02-28T12:54:44;8.90;49.00
31677;DHT22;18385;51.572;6.578;2023-02-28T12:57:52;9.00;49.00
31677;DHT22;18385;51.572;6.578;2023-02-28T13:00:25;9.10;48.80
31677;DHT22;18385;51.572;6.578;2023-02-28T13:06:06;9.20;48.50
31677;DHT22;18385;51.572;6.578;2023-02-28T13:11:07;9.30;48.50
31677;DHT22;18385;51.572;6.578;2023-02-28T13:13:47;9.40;48.30
31677;DHT22;18385;51.572;6.578;2023-02-28T13:16:13;9.40;48.10
31677;DHT22;18385;51.572;6.578;2023-02-28T13:18:43;9.50;47.90
31677;DHT22;18385;51.572;6.578;2023-02-28T13:21:22;9.60;47.90
31677;DHT22;18385;51.572;6.578;2023-02-28T13:39:58;10.10;47.40
31677;DHT22;18385;51.572;6.578;2023-02-28T13:42:34;10.10;47.40
31677;DHT22;18385;51.572;6.578;2023-02-28T13:47:45;10.20;47.00
31677;DHT22;18385;51.572;6.578;2023-02-28T13:55:33;10.60;47.20
31677;DHT22;18385;51.572;6.578;2023-02-28T14:06:22;13.00;47.40
31677;DHT22;18385;51.572;6.578;2023-02-28T14:08:53;13.40;47.40
31677;DHT22;18385;51.572;6.578;2023-02-28T14:11:32;13.80;46.90
31677;DHT22;18385;51.572;6.578;2023-02-28T14:13:58;14.00;46.30
31677;DHT22;18385;51.572;6.578;2023-02-28T14:16:26;14.20;46.50
31677;DHT22;18385;51.572;6.578;2023-02-28T14:19:00;14.40;46.30
31677;DHT22;18385;51.572;6.578;2023-02-28T14:21:34;14.90;46.00
31677;DHT22;18385;51.572;6.578;2023-02-28T14:24:16;15.20;45.40
31677;DHT22;18385;51.572;6.578;2023-02-28T14:27:05;15.50;45.30
31677;DHT22;18385;51.572;6.578;2023-02-28T14:30:01;15.60;44.60
31677;DHT22;18385;51.572;6.578;2023-02-28T14:32:44;16.00;44.60
31677;DHT22;18385;51.572;6.578;2023-02-28T14:37:51;16.50;43.90
31677;DHT22;18385;51.572;6.578;2023-02-28T14:40:27;16.60;43.70
31677;DHT22;18385;51.572;6.578;2023-02-28T14:42:57;16.80;43.00
31677;DHT22;18385;51.572;6.578;2023-02-28T14:45:29;17.00;42.90
31677;DHT22;18385;51.572;6.578;2023-02-28T14:47:56;17.00;42.30
31677;DHT22;18385;51.572;6.578;2023-02-28T14:50:29;17.10;42.30
31677;DHT22;18385;51.572;6.578;2023-02-28T14:52:56;17.10;41.40
31677;DHT22;18385;51.572;6.578;2023-02-28T14:55:27;17.00;41.20
31677;DHT22;18385;51.572;6.578;2023-02-28T14:58:03;16.40;40.20
31677;DHT22;18385;51.572;6.578;2023-02-28T15:00:31;14.90;40.00
31677;DHT22;18385;51.572;6.578;2023-02-28T15:02:59;13.40;40.00
31677;DHT22;18385;51.572;6.578;2023-02-28T15:10:30;11.20;42.00
31677;DHT22;18385;51.572;6.578;2023-02-28T15:13:02;10.90;42.30
31677;DHT22;18385;51.572;6.578;2023-02-28T15:18:43;10.20;42.50
31677;DHT22;18385;51.572;6.578;2023-02-28T15:23:45;9.80;42.70
31677;DHT22;18385;51.572;6.578;2023-02-28T15:26:16;9.70;42.70
31677;DHT22;18385;51.572;6.578;2023-02-28T15:28:43;9.60;42.80
31677;DHT22;18385;51.572;6.578;2023-02-28T15:31:21;9.40;42.80
31677;DHT22;18385;51.572;6.578;2023-02-28T15:33:56;9.30;42.80
31677;DHT22;18385;51.572;6.578;2023-02-28T15:36:25;9.20;43.00
31677;DHT22;18385;51.572;6.578;2023-02-28T15:38:53;9.20;43.00
31677;DHT22;18385;51.572;6.578;2023-02-28T15:41:30;9.10;43.00
31677;DHT22;18385;51.572;6.578;2023-02-28T15:46:54;9.00;43.00
31677;DHT22;18385;51.572;6.578;2023-02-28T15:49:21;8.90;43.10
31677;DHT22;18385;51.572;6.578;2023-02-28T15:51:49;8.90;43.20
31677;DHT22;18385;51.572;6.578;2023-02-28T15:54:27;8.90;43.20
31677;DHT22;18385;51.572;6.578;2023-02-28T15:56:57;8.80;43.10
31677;DHT22;18385;51.572;6.578;2023-02-28T15:59:27;8.80;43.20
31677;DHT22;18385;51.572;6.578;2023-02-28T16:04:35;8.70;43.30
31677;DHT22;18385;51.572;6.578;2023-02-28T16:07:03;8.60;43.30
31677;DHT22;18385;51.572;6.578;2023-02-28T16:09:29;8.60;43.30
31677;DHT22;18385;51.572;6.578;2023-02-28T16:12:00;8.50;43.30
31677;DHT22;18385;51.572;6.578;2023-02-28T16:14:29;8.50;43.30
31677;DHT22;18385;51.572;6.578;2023-02-28T16:17:07;8.40;43.40
31677;DHT22;18385;51.572;6.578;2023-02-28T16:19:35;8.40;43.40
31677;DHT22;18385;51.572;6.578;2023-02-28T16:22:01;8.40;43.50
31677;DHT22;18385;51.572;6.578;2023-02-28T16:24:26;8.30;43.50
31677;DHT22;18385;51.572;6.578;2023-02-28T16:26:53;8.30;43.60
31677;DHT22;18385;51.572;6.578;2023-02-28T16:29:27;8.20;43.60
31677;DHT22;18385;51.572;6.578;2023-02-28T16:31:55;8.20;43.60
31677;DHT22;18385;51.572;6.578;2023-02-28T16:34:21;8.10;43.70
31677;DHT22;18385;51.572;6.578;2023-02-28T16:36:48;8.00;43.70
31677;DHT22;18385;51.572;6.578;2023-02-28T16:39:14;7.90;43.80
31677;DHT22;18385;51.572;6.578;2023-02-28T16:41:42;7.90;44.50
31677;DHT22;18385;51.572;6.578;2023-02-28T16:44:13;7.90;44.00
31677;DHT22;18385;51.572;6.578;2023-02-28T16:46:39;7.70;43.90
31677;DHT22;18385;51.572;6.578;2023-02-28T16:49:11;7.70;44.10
31677;DHT22;18385;51.572;6.578;2023-02-28T16:51:37;7.60;44.20
31677;DHT22;18385;51.572;6.578;2023-02-28T16:54:02;7.50;44.10
31677;DHT22;18385;51.572;6.578;2023-02-28T16:56:28;7.50;44.20
31677;DHT22;18385;51.572;6.578;2023-02-28T16:58:57;7.50;44.20
31677;DHT22;18385;51.572;6.578;2023-02-28T17:01:23;7.40;44.30
31677;DHT22;18385;51.572;6.578;2023-02-28T17:03:49;7.30;44.30
31677;DHT22;18385;51.572;6.578;2023-02-28T17:06:26;7.20;44.40
31677;DHT22;18385;51.572;6.578;2023-02-28T17:08:54;7.20;44.50
31677;DHT22;18385;51.572;6.578;2023-02-28T17:11:19;7.00;44.50
31677;DHT22;18385;51.572;6.578;2023-02-28T17:13:46;7.00;44.60
31677;DHT22;18385;51.572;6.578;2023-02-28T17:16:38;6.90;44.70
31677;DHT22;18385;51.572;6.578;2023-02-28T17:19:13;6.80;44.80
31677;DHT22;18385;51.572;6.578;2023-02-28T17:21:39;6.70;44.90
31677;DHT22;18385;51.572;6.578;2023-02-28T17:24:07;6.60;44.90
31677;DHT22;18385;51.572;6.578;2023-02-28T17:26:33;6.50;45.00
31677;DHT22;18385;51.572;6.578;2023-02-28T17:28:59;6.50;45.10
31677;DHT22;18385;51.572;6.578;2023-02-28T17:31:26;6.40;45.10
31677;DHT22;18385;51.572;6.578;2023-02-28T17:33:52;6.40;45.10
31677;DHT22;18385;51.572;6.578;2023-02-28T17:36:26;6.30;45.20
31677;DHT22;18385;51.572;6.578;2023-02-28T17:38:53;6.20;45.30
31677;DHT22;18385;51.572;6.578;2023-02-28T17:41:20;6.10;45.40
31677;DHT22;18385;51.572;6.578;2023-02-28T17:43:46;6.00;45.50
31677;DHT22;18385;51.572;6.578;2023-02-28T17:46:22;5.90;45.60
31677;DHT22;18385;51.572;6.578;2023-02-28T17:48:52;5.90;45.80
31677;DHT22;18385;51.572;6.578;2023-02-28T17:51:19;5.80;45.80
31677;DHT22;18385;51.572;6.578;2023-02-28T17:53:45;5.70;45.80
31677;DHT22;18385;51.572;6.578;2023-02-28T17:58:44;5.60;45.90
31677;DHT22;18385;51.572;6.578;2023-02-28T18:01:09;5.50;46.00
31677;DHT22;18385;51.572;6.578;2023-02-28T18:03:36;5.50;46.10
31677;DHT22;18385;51.572;6.578;2023-02-28T18:06:02;5.40;46.20
31677;DHT22;18385;51.572;6.578;2023-02-28T18:08:28;5.40;46.30
31677;DHT22;18385;51.572;6.578;2023-02-28T18:10:54;5.30;46.20